createdAt,value
2017-12-27T00:00:22.840Z,3.80
2017-12-27T00:02:56.341Z,3.80
2017-12-27T00:08:33.706Z,3.40
2017-12-27T00:11:06.815Z,2.60
2017-12-27T00:13:40.424Z,2.70
2017-12-27T00:16:27.123Z,2.50
2017-12-27T00:19:00.421Z,2.30
2017-12-27T00:21:35.668Z,3.20
2017-12-27T00:24:08.844Z,2.87
2017-12-27T00:26:42.147Z,4.30
2017-12-27T00:29:15.816Z,3.77
2017-12-27T00:31:42.904Z,3.07
2017-12-27T00:34:10.259Z,2.97
2017-12-27T00:36:37.314Z,3.10
2017-12-27T00:39:04.879Z,3.30
2017-12-27T00:41:31.936Z,2.93
2017-12-27T00:43:59.088Z,3.27
2017-12-27T00:46:26.247Z,3.43
2017-12-27T00:48:53.401Z,2.97
2017-12-27T00:51:20.655Z,3.03
2017-12-27T00:53:48.109Z,2.70
2017-12-27T00:56:15.208Z,3.60
2017-12-27T00:58:43.040Z,3.00
2017-12-27T01:01:10.193Z,3.43
2017-12-27T01:03:37.352Z,4.80
2017-12-27T01:06:04.400Z,3.33
2017-12-27T01:08:32.180Z,3.40
2017-12-27T01:10:59.227Z,4.43
2017-12-27T01:13:26.579Z,4.60
2017-12-27T01:15:53.683Z,3.10
2017-12-27T01:18:21.618Z,2.97
2017-12-27T01:20:48.868Z,3.60
2017-12-27T01:23:16.022Z,3.10
2017-12-27T01:25:43.395Z,2.50
2017-12-27T01:28:10.840Z,2.50
2017-12-27T01:30:38.219Z,2.30
2017-12-27T01:33:05.256Z,3.20
2017-12-27T01:35:32.411Z,2.70
2017-12-27T01:37:59.567Z,3.70
2017-12-27T01:40:26.823Z,2.50
2017-12-27T01:42:53.883Z,1.87
2017-12-27T01:45:21.771Z,5.00
2017-12-27T01:47:48.903Z,3.23
2017-12-27T01:50:16.016Z,3.70
2017-12-27T01:52:43.112Z,3.30
2017-12-27T01:55:10.364Z,3.30
2017-12-27T01:57:37.523Z,2.90
2017-12-27T02:00:04.649Z,4.00
2017-12-27T02:02:31.888Z,3.77
2017-12-27T02:04:58.888Z,3.10
2017-12-27T02:07:26.248Z,2.67
2017-12-27T02:09:53.291Z,2.87
2017-12-27T02:12:20.448Z,2.70
2017-12-27T02:14:47.715Z,2.20
2017-12-27T02:17:14.971Z,2.30
2017-12-27T02:19:42.327Z,2.50
2017-12-27T02:22:09.411Z,2.70
2017-12-27T02:24:37.251Z,2.03
2017-12-27T02:27:04.299Z,3.53
2017-12-27T02:29:31.504Z,2.70
2017-12-27T02:31:59.327Z,3.30
2017-12-27T02:34:26.380Z,2.97
2017-12-27T02:36:53.460Z,4.47
2017-12-27T02:42:37.964Z,2.50
2017-12-27T02:45:05.056Z,2.50
2017-12-27T02:47:32.100Z,3.70
2017-12-27T02:49:59.259Z,2.33
2017-12-27T02:52:26.507Z,3.70
2017-12-27T02:54:53.560Z,2.90
2017-12-27T02:57:20.616Z,4.63
2017-12-27T02:59:47.668Z,3.40
2017-12-27T03:02:14.928Z,3.90
2017-12-27T03:04:42.184Z,2.80
2017-12-27T03:07:09.136Z,3.50
2017-12-27T03:09:36.284Z,2.77
2017-12-27T03:12:03.444Z,3.00
2017-12-27T03:14:30.492Z,2.40
2017-12-27T03:16:57.518Z,2.50
2017-12-27T03:19:24.704Z,2.00
2017-12-27T03:21:51.858Z,3.23
2017-12-27T03:24:19.016Z,3.03
2017-12-27T03:26:46.472Z,2.77
2017-12-27T03:29:13.528Z,3.33
2017-12-27T03:31:40.896Z,2.83
2017-12-27T03:34:07.839Z,3.60
2017-12-27T03:36:34.995Z,2.60
2017-12-27T03:39:02.048Z,3.60
2017-12-27T03:41:30.328Z,3.00
2017-12-27T03:43:57.376Z,2.53
2017-12-27T03:46:24.432Z,3.23
2017-12-27T03:48:51.412Z,3.67
2017-12-27T03:51:19.155Z,2.50
2017-12-27T03:53:47.298Z,3.20
2017-12-27T03:56:14.584Z,3.70
2017-12-27T03:58:41.944Z,4.00
2017-12-27T04:01:09.155Z,3.10
2017-12-27T04:03:36.256Z,3.97
2017-12-27T04:06:03.512Z,3.33
2017-12-27T04:08:30.668Z,3.00
2017-12-27T04:10:57.922Z,3.27
2017-12-27T04:13:24.987Z,3.10
2017-12-27T04:15:52.032Z,2.70
2017-12-27T04:18:19.395Z,3.60
2017-12-27T04:20:46.443Z,3.87
2017-12-27T04:23:13.596Z,4.23
2017-12-27T04:25:42.408Z,3.40
2017-12-27T04:28:09.746Z,3.67
2017-12-27T04:30:36.811Z,2.83
2017-12-27T04:33:03.923Z,4.30
2017-12-27T04:35:31.115Z,3.43
2017-12-27T04:37:58.272Z,2.30
2017-12-27T04:40:25.280Z,3.20
2017-12-27T04:42:52.307Z,3.87
2017-12-27T04:45:20.148Z,2.60
2017-12-27T04:47:47.898Z,3.93
2017-12-27T04:50:14.860Z,3.63
2017-12-27T04:52:41.921Z,3.07
2017-12-27T04:55:09.067Z,3.33
2017-12-27T04:57:36.123Z,2.90
2017-12-27T05:00:03.475Z,2.30
2017-12-27T05:02:30.540Z,4.87
2017-12-27T05:04:57.594Z,4.17
2017-12-27T05:07:24.752Z,3.60
2017-12-27T05:09:51.796Z,3.23
2017-12-27T05:12:18.853Z,3.60
2017-12-27T05:14:46.717Z,3.63
2017-12-27T05:17:14.484Z,2.53
2017-12-27T05:19:41.649Z,4.00
2017-12-27T05:22:08.800Z,2.63
2017-12-27T05:24:35.960Z,3.60
2017-12-27T05:27:03.115Z,5.03
2017-12-27T05:29:30.096Z,4.47
2017-12-27T05:31:58.004Z,3.77
2017-12-27T05:34:25.184Z,3.17
2017-12-27T05:36:53.062Z,3.53
2017-12-27T05:39:20.216Z,2.70
2017-12-27T05:41:47.264Z,2.83
2017-12-27T05:44:14.627Z,4.57
2017-12-27T05:46:41.984Z,4.60
2017-12-27T05:49:09.035Z,3.63
2017-12-27T05:51:36.299Z,3.93
2017-12-27T05:54:03.352Z,4.57
2017-12-27T05:56:30.608Z,3.70
2017-12-27T05:58:57.760Z,3.47
2017-12-27T06:01:26.043Z,3.13
2017-12-27T06:03:53.100Z,3.50
2017-12-27T06:06:20.451Z,3.43
2017-12-27T06:08:47.920Z,4.20
2017-12-27T06:11:15.281Z,5.00
2017-12-27T06:13:42.632Z,6.30
2017-12-27T06:16:09.792Z,5.50
2017-12-27T06:18:36.952Z,6.47
2017-12-27T06:21:04.195Z,5.17
2017-12-27T06:23:31.153Z,4.13
2017-12-27T06:25:59.024Z,3.30
2017-12-27T06:28:26.225Z,3.80
2017-12-27T06:30:54.152Z,4.00
2017-12-27T06:33:21.312Z,3.27
2017-12-27T06:35:48.770Z,3.40
2017-12-27T06:38:15.829Z,2.80
2017-12-27T06:40:43.080Z,4.60
2017-12-27T06:43:10.235Z,3.30
2017-12-27T06:45:37.496Z,4.00
2017-12-27T06:48:04.773Z,5.20
2017-12-27T06:50:32.008Z,4.87
2017-12-27T06:52:59.163Z,4.23
2017-12-27T06:55:26.228Z,5.47
2017-12-27T06:57:53.576Z,6.00
2017-12-27T07:00:20.632Z,4.93
2017-12-27T07:02:47.652Z,4.60
2017-12-27T07:05:14.736Z,3.50
2017-12-27T07:07:41.892Z,3.90
2017-12-27T07:10:08.955Z,3.93
2017-12-27T07:12:35.991Z,3.90
2017-12-27T07:15:03.147Z,4.70
2017-12-27T07:17:30.115Z,4.77
2017-12-27T07:19:58.088Z,4.40
2017-12-27T07:22:25.096Z,5.30
2017-12-27T07:24:52.180Z,6.33
2017-12-27T07:27:19.449Z,5.07
2017-12-27T07:29:46.800Z,10.57
2017-12-27T07:32:14.051Z,9.87
2017-12-27T07:34:41.107Z,13.30
2017-12-27T07:37:08.467Z,7.97
2017-12-27T07:39:35.627Z,6.20
2017-12-27T07:42:02.727Z,4.50
2017-12-27T07:44:29.828Z,6.57
2017-12-27T07:46:57.293Z,5.40
2017-12-27T07:49:24.448Z,5.83
2017-12-27T07:51:51.455Z,5.90
2017-12-27T07:54:18.664Z,6.43
2017-12-27T07:56:47.371Z,5.30
2017-12-27T07:59:15.219Z,5.20
2017-12-27T08:01:42.475Z,5.03
2017-12-27T08:04:09.754Z,5.10
2017-12-27T08:06:37.496Z,9.80
2017-12-27T08:09:04.555Z,11.83
2017-12-27T08:11:31.715Z,5.97
2017-12-27T08:13:58.859Z,5.33
2017-12-27T08:16:26.000Z,7.70
2017-12-27T08:18:53.595Z,12.73
2017-12-27T08:21:20.636Z,6.10
2017-12-27T08:23:47.792Z,5.90
2017-12-27T08:26:15.968Z,6.60
2017-12-27T08:28:43.123Z,19.80
2017-12-27T08:31:10.176Z,9.87
2017-12-27T08:33:37.333Z,7.60
2017-12-27T08:36:04.493Z,7.73
2017-12-27T08:38:32.328Z,12.60
2017-12-27T08:40:59.312Z,6.37
2017-12-27T08:43:27.483Z,6.90
2017-12-27T08:45:54.576Z,5.50
2017-12-27T08:48:22.313Z,6.90
2017-12-27T08:50:49.364Z,11.40
2017-12-27T08:53:16.651Z,9.90
2017-12-27T08:55:44.568Z,10.03
2017-12-27T08:58:12.062Z,6.83
2017-12-27T09:00:40.263Z,7.17
2017-12-27T09:03:08.104Z,13.90
2017-12-27T09:05:35.163Z,10.97
2017-12-27T09:08:02.307Z,7.50
2017-12-27T09:10:29.384Z,6.83
2017-12-27T09:12:57.955Z,6.83
2017-12-27T09:15:24.925Z,8.90
2017-12-27T09:17:52.805Z,8.00
2017-12-27T09:20:21.052Z,7.00
2017-12-27T09:22:48.104Z,7.10
2017-12-27T09:25:15.583Z,7.80
2017-12-27T09:27:43.443Z,6.20
2017-12-27T09:30:11.215Z,6.17
2017-12-27T09:32:38.220Z,5.80
2017-12-27T09:35:05.703Z,4.70
2017-12-27T09:37:32.986Z,8.57
2017-12-27T09:40:00.275Z,6.83
2017-12-27T09:42:28.193Z,6.27
2017-12-27T09:44:55.259Z,7.37
2017-12-27T09:47:22.628Z,6.17
2017-12-27T09:49:49.777Z,7.70
2017-12-27T09:52:16.784Z,14.37
2017-12-27T09:54:44.603Z,12.37
2017-12-27T09:57:11.680Z,8.87
2017-12-27T09:59:40.169Z,7.73
2017-12-27T10:02:07.192Z,8.27
2017-12-27T10:04:34.349Z,8.43
2017-12-27T10:07:01.608Z,7.93
2017-12-27T10:09:28.659Z,6.93
2017-12-27T10:11:55.739Z,8.50
2017-12-27T10:14:23.583Z,5.90
2017-12-27T10:16:50.736Z,5.20
2017-12-27T10:19:17.816Z,7.30
2017-12-27T10:21:45.048Z,6.60
2017-12-27T10:24:12.115Z,5.33
2017-12-27T10:26:39.156Z,4.20
2017-12-27T10:29:06.184Z,4.80
2017-12-27T10:31:33.371Z,5.67
2017-12-27T10:34:00.827Z,5.10
2017-12-27T10:36:27.984Z,5.13
2017-12-27T10:38:55.132Z,4.73
2017-12-27T10:41:22.192Z,7.07
2017-12-27T10:43:49.444Z,11.10
2017-12-27T10:46:16.498Z,8.83
2017-12-27T10:48:43.673Z,7.40
2017-12-27T10:51:10.808Z,19.80
2017-12-27T10:53:37.977Z,12.90
2017-12-27T10:56:05.831Z,12.10
2017-12-27T10:58:33.088Z,11.80
2017-12-27T11:01:00.451Z,9.53
2017-12-27T11:03:28.346Z,9.10
2017-12-27T11:05:55.487Z,9.03
2017-12-27T11:08:24.884Z,10.90
2017-12-27T11:10:52.043Z,11.23
2017-12-27T11:13:19.043Z,8.63
2017-12-27T11:15:46.148Z,9.67
2017-12-27T11:18:13.307Z,10.17
2017-12-27T11:20:41.191Z,9.07
2017-12-27T11:23:08.531Z,6.13
2017-12-27T11:25:35.683Z,5.60
2017-12-27T11:28:02.731Z,17.73
2017-12-27T11:30:29.792Z,9.63
2017-12-27T11:32:56.840Z,3.90
2017-12-27T11:35:24.099Z,3.80
2017-12-27T11:37:51.163Z,4.20
2017-12-27T11:40:19.019Z,3.97
2017-12-27T11:42:46.293Z,3.90
2017-12-27T11:45:13.440Z,3.07
2017-12-27T11:47:40.699Z,2.40
2017-12-27T11:50:07.787Z,2.70
2017-12-27T11:52:35.616Z,2.53
2017-12-27T11:55:02.776Z,2.70
2017-12-27T11:57:29.823Z,2.40
2017-12-27T11:59:57.240Z,2.53
2017-12-27T12:02:24.440Z,2.40
2017-12-27T12:04:51.498Z,2.83
2017-12-27T12:07:18.651Z,2.10
2017-12-27T12:09:45.600Z,2.60
2017-12-27T12:12:12.753Z,3.30
2017-12-27T12:14:39.808Z,2.37
2017-12-27T12:17:06.963Z,1.93
2017-12-27T12:19:34.023Z,1.83
2017-12-27T12:22:01.003Z,2.00
2017-12-27T12:24:28.939Z,2.47
2017-12-27T12:26:55.992Z,2.40
2017-12-27T12:29:23.049Z,1.80
2017-12-27T12:31:50.603Z,1.60
2017-12-27T12:34:17.751Z,2.00
2017-12-27T12:36:44.813Z,2.20
2017-12-27T12:39:11.867Z,2.40
2017-12-27T12:41:38.859Z,2.00
2017-12-27T12:44:06.693Z,1.50
2017-12-27T12:46:33.866Z,1.30
2017-12-27T12:49:01.306Z,1.10
2017-12-27T12:51:28.364Z,1.20
2017-12-27T12:53:55.725Z,0.93
2017-12-27T12:56:22.920Z,0.93
2017-12-27T12:58:51.052Z,0.70
2017-12-27T13:01:18.411Z,1.10
2017-12-27T13:03:45.874Z,0.80
2017-12-27T13:06:13.033Z,1.03
2017-12-27T13:08:40.296Z,1.57
2017-12-27T13:11:07.339Z,1.47
2017-12-27T13:13:34.555Z,1.20
2017-12-27T13:16:02.476Z,1.10
2017-12-27T13:18:29.649Z,0.97
2017-12-27T13:20:56.779Z,1.80
2017-12-27T13:23:23.688Z,1.30
2017-12-27T13:25:51.242Z,1.27
2017-12-27T13:28:18.348Z,1.30
2017-12-27T13:30:45.499Z,1.00
2017-12-27T13:33:12.568Z,1.13
2017-12-27T13:35:39.931Z,1.00
2017-12-27T13:38:07.137Z,1.10
2017-12-27T13:40:34.233Z,1.70
2017-12-27T13:43:01.285Z,2.30
2017-12-27T13:45:28.839Z,3.00
2017-12-27T13:47:56.003Z,6.37
2017-12-27T13:50:23.258Z,2.87
2017-12-27T13:52:51.135Z,3.30
2017-12-27T13:55:19.002Z,4.00
2017-12-27T13:57:46.047Z,4.10
2017-12-27T14:00:13.104Z,7.10
2017-12-27T14:02:41.075Z,12.90
2017-12-27T14:05:08.141Z,5.73
2017-12-27T14:07:36.625Z,1.60
2017-12-27T14:10:03.722Z,1.00
2017-12-27T14:12:30.821Z,1.17
2017-12-27T14:14:58.286Z,1.00
2017-12-27T14:17:25.650Z,1.10
2017-12-27T14:19:52.733Z,0.80
2017-12-27T14:22:20.566Z,1.60
2017-12-27T14:24:47.728Z,1.70
2017-12-27T14:27:16.755Z,1.10
2017-12-27T14:29:44.809Z,1.80
2017-12-27T14:32:11.851Z,1.63
2017-12-27T14:34:39.105Z,1.20
2017-12-27T14:37:06.259Z,1.67
2017-12-27T14:39:34.028Z,1.30
2017-12-27T14:42:01.089Z,1.63
2017-12-27T14:44:28.343Z,2.27
2017-12-27T14:46:55.403Z,1.60
2017-12-27T14:49:22.852Z,1.60
2017-12-27T14:51:50.107Z,1.50
2017-12-27T14:54:17.165Z,1.50
2017-12-27T14:56:44.371Z,1.50
2017-12-27T14:59:13.008Z,1.60
2017-12-27T15:01:40.074Z,1.43
2017-12-27T15:04:07.419Z,2.10
2017-12-27T15:06:34.779Z,3.23
2017-12-27T15:09:02.040Z,2.77
2017-12-27T15:11:29.308Z,1.80
2017-12-27T15:13:56.349Z,1.67
2017-12-27T15:16:23.520Z,1.57
2017-12-27T15:18:50.660Z,1.80
2017-12-27T15:21:18.360Z,1.77
2017-12-27T15:23:46.196Z,1.77
2017-12-27T15:26:13.147Z,1.40
2017-12-27T15:28:40.197Z,2.00
2017-12-27T15:31:07.455Z,1.27
2017-12-27T15:33:34.920Z,1.30
2017-12-27T15:36:01.979Z,1.50
2017-12-27T15:38:29.688Z,1.27
2017-12-27T15:40:57.712Z,0.80
2017-12-27T15:43:24.665Z,1.20
2017-12-27T15:45:51.726Z,1.93
2017-12-27T15:48:19.857Z,1.60
2017-12-27T15:50:47.049Z,1.30
2017-12-27T15:53:14.203Z,1.60
2017-12-27T15:55:41.555Z,1.43
2017-12-27T15:58:08.722Z,1.20
2017-12-27T16:00:35.875Z,1.03
2017-12-27T16:03:03.226Z,1.30
2017-12-27T16:05:30.596Z,1.10
2017-12-27T16:07:57.748Z,1.50
2017-12-27T16:10:24.807Z,1.90
2017-12-27T16:12:52.032Z,1.40
2017-12-27T16:15:20.035Z,1.50
2017-12-27T16:17:47.064Z,3.50
2017-12-27T16:20:14.139Z,4.20
2017-12-27T16:22:41.089Z,3.80
2017-12-27T16:25:08.449Z,3.33
2017-12-27T16:27:35.499Z,2.40
2017-12-27T16:30:03.377Z,2.90
2017-12-27T16:32:30.475Z,3.30
2017-12-27T16:34:57.875Z,3.83
2017-12-27T16:37:24.939Z,3.10
2017-12-27T16:39:51.987Z,2.67
2017-12-27T16:42:19.000Z,2.20
2017-12-27T16:44:46.280Z,2.57
2017-12-27T16:47:13.460Z,1.50
2017-12-27T16:49:40.408Z,1.50
2017-12-27T16:52:07.688Z,2.20
2017-12-27T16:54:34.723Z,2.30
2017-12-27T16:57:01.771Z,3.73
2017-12-27T16:59:28.828Z,4.37
2017-12-27T17:01:56.261Z,9.70
2017-12-27T17:04:24.436Z,9.80
2017-12-27T17:06:51.619Z,13.83
2017-12-27T17:09:18.880Z,13.77
2017-12-27T17:11:46.208Z,15.30
2017-12-27T17:14:13.398Z,14.37
2017-12-27T17:16:41.259Z,13.77
2017-12-27T17:19:08.299Z,14.13
2017-12-27T17:21:35.372Z,31.83
2017-12-27T17:24:02.432Z,13.50
2017-12-27T17:26:30.299Z,16.40
2017-12-27T17:28:57.448Z,14.77
2017-12-27T17:31:24.516Z,16.17
2017-12-27T17:33:51.756Z,16.10
2017-12-27T17:36:19.089Z,17.17
2017-12-27T17:38:46.275Z,14.30
2017-12-27T17:41:13.337Z,14.07
2017-12-27T17:43:41.106Z,13.30
2017-12-27T17:46:10.092Z,12.17
2017-12-27T17:48:37.251Z,11.47
2017-12-27T17:51:04.403Z,11.40
2017-12-27T17:53:32.276Z,12.20
2017-12-27T17:55:59.776Z,17.27
2017-12-27T17:58:28.034Z,12.67
2017-12-27T18:00:55.229Z,23.23
2017-12-27T18:03:22.331Z,13.30
2017-12-27T18:05:49.992Z,13.37
2017-12-27T18:08:17.056Z,11.73
2017-12-27T18:10:44.204Z,12.40
2017-12-27T18:13:11.200Z,11.73
2017-12-27T18:15:38.842Z,12.53
2017-12-27T18:18:05.878Z,11.97
2017-12-27T18:20:33.662Z,11.37
2017-12-27T18:23:00.792Z,10.50
2017-12-27T18:25:29.388Z,9.20
2017-12-27T18:27:57.148Z,11.27
2017-12-27T18:30:24.114Z,10.10
2017-12-27T18:32:52.640Z,11.60
2017-12-27T18:35:19.736Z,8.93
2017-12-27T18:37:46.896Z,9.20
2017-12-27T18:40:14.047Z,8.47
2017-12-27T18:42:41.205Z,7.87
2017-12-27T18:45:08.253Z,8.40
2017-12-27T18:47:35.312Z,10.33
2017-12-27T18:50:02.563Z,10.70
2017-12-27T18:52:29.822Z,10.27
2017-12-27T18:54:56.935Z,9.70
2017-12-27T18:57:24.187Z,8.23
2017-12-27T18:59:51.402Z,9.53
2017-12-27T19:02:18.548Z,7.97
2017-12-27T19:04:45.736Z,6.70
2017-12-27T19:07:14.114Z,12.93
2017-12-27T19:09:42.168Z,16.53
2017-12-27T19:12:09.416Z,11.83
2017-12-27T19:14:36.651Z,11.43
2017-12-27T19:17:03.629Z,16.50
2017-12-27T19:19:30.997Z,9.93
2017-12-27T19:21:58.144Z,8.03
2017-12-27T19:24:25.505Z,8.30
2017-12-27T19:26:52.959Z,8.30
2017-12-27T19:29:20.530Z,6.77
2017-12-27T19:31:48.907Z,6.07
2017-12-27T19:34:16.272Z,5.33
2017-12-27T19:36:43.832Z,5.80
2017-12-27T19:39:11.801Z,5.13
2017-12-27T19:41:39.259Z,5.50
2017-12-27T19:44:07.395Z,5.53
2017-12-27T19:46:35.219Z,6.17
2017-12-27T19:49:02.580Z,6.83
2017-12-27T19:51:30.251Z,6.50
2017-12-27T19:53:57.912Z,5.80
2017-12-27T19:56:25.471Z,5.60
2017-12-27T19:58:52.882Z,5.83
2017-12-27T20:01:21.124Z,5.20
2017-12-27T20:03:48.768Z,5.87
2017-12-27T20:06:16.257Z,7.70
2017-12-27T20:08:44.635Z,7.30
2017-12-27T20:11:12.296Z,8.70
2017-12-27T20:13:39.763Z,7.90
2017-12-27T20:16:07.321Z,6.70
2017-12-27T20:18:35.800Z,6.13
2017-12-27T20:21:03.741Z,8.40
2017-12-27T20:23:31.235Z,6.83
2017-12-27T20:25:58.803Z,6.50
2017-12-27T20:28:26.178Z,9.63
2017-12-27T20:30:54.444Z,7.43
2017-12-27T20:33:22.321Z,9.13
2017-12-27T20:35:51.423Z,13.90
2017-12-27T20:38:18.990Z,7.80
2017-12-27T20:40:46.524Z,7.60
2017-12-27T20:43:14.081Z,8.13
2017-12-27T20:45:41.524Z,6.47
2017-12-27T20:48:09.556Z,8.00
2017-12-27T20:50:37.183Z,8.00
2017-12-27T20:53:04.664Z,7.17
2017-12-27T20:55:31.755Z,9.70
2017-12-27T20:57:58.936Z,7.93
2017-12-27T21:00:26.355Z,12.70
2017-12-27T21:02:53.781Z,13.13
2017-12-27T21:05:21.896Z,8.40
2017-12-27T21:07:49.565Z,6.87
2017-12-27T21:10:17.275Z,8.87
2017-12-27T21:12:44.868Z,11.90
2017-12-27T21:15:12.320Z,8.63
2017-12-27T21:17:39.787Z,6.97
2017-12-27T21:20:07.084Z,6.83
2017-12-27T21:22:35.863Z,11.00
2017-12-27T21:25:03.218Z,8.53
2017-12-27T21:27:30.475Z,9.17
2017-12-27T21:29:57.731Z,9.70
2017-12-27T21:32:24.783Z,7.33
2017-12-27T21:34:51.842Z,6.73
2017-12-27T21:37:19.267Z,8.37
2017-12-27T21:39:46.698Z,9.50
2017-12-27T21:42:14.632Z,9.73
2017-12-27T21:44:41.890Z,7.60
2017-12-27T21:47:10.183Z,7.77
2017-12-27T21:49:43.267Z,7.33
2017-12-27T21:52:10.307Z,7.23
2017-12-27T21:54:38.188Z,6.63
2017-12-27T21:57:05.275Z,7.13
2017-12-27T21:59:40.571Z,7.90
2017-12-27T22:02:07.836Z,10.97
2017-12-27T22:04:34.987Z,9.90
2017-12-27T22:07:02.965Z,6.97
2017-12-27T22:09:29.997Z,14.83
2017-12-27T22:11:57.563Z,14.20
2017-12-27T22:14:25.251Z,11.03
2017-12-27T22:16:52.403Z,10.97
2017-12-27T22:19:19.456Z,15.30
2017-12-27T22:21:46.587Z,10.43
2017-12-27T22:24:14.293Z,9.23
2017-12-27T22:26:41.324Z,12.83
2017-12-27T22:29:08.383Z,8.80
2017-12-27T22:31:35.432Z,12.80
2017-12-27T22:34:02.800Z,9.77
2017-12-27T22:36:30.099Z,16.00
2017-12-27T22:38:57.923Z,12.30
2017-12-27T22:41:25.083Z,18.77
2017-12-27T22:43:52.227Z,16.20
2017-12-27T22:46:19.388Z,15.57
2017-12-27T22:48:46.544Z,15.40
2017-12-27T22:51:13.699Z,12.00
2017-12-27T22:53:40.651Z,9.80
2017-12-27T22:56:08.008Z,10.50
2017-12-27T22:58:35.380Z,10.47
2017-12-27T23:01:02.528Z,9.70
2017-12-27T23:03:29.776Z,9.80
2017-12-27T23:05:57.004Z,11.17
2017-12-27T23:08:23.992Z,17.90
2017-12-27T23:10:51.152Z,8.77
2017-12-27T23:13:18.195Z,10.37
2017-12-27T23:15:45.451Z,9.90
2017-12-27T23:18:12.615Z,12.03
2017-12-27T23:20:39.669Z,10.70
2017-12-27T23:23:06.816Z,9.90
2017-12-27T23:25:34.488Z,8.03
2017-12-27T23:28:01.739Z,8.37
2017-12-27T23:30:28.795Z,6.77
2017-12-27T23:32:56.667Z,6.97
2017-12-27T23:35:24.027Z,9.07
2017-12-27T23:37:51.288Z,9.10
2017-12-27T23:40:18.336Z,8.93
2017-12-27T23:42:45.491Z,6.90
2017-12-27T23:45:12.757Z,8.63
2017-12-27T23:47:40.216Z,8.47
2017-12-27T23:50:07.667Z,10.37
2017-12-27T23:52:34.725Z,9.50
2017-12-27T23:55:02.797Z,8.93
2017-12-27T23:57:29.951Z,10.30
2017-12-27T23:59:57.112Z,10.10
